Flight EZE83D

  • Submitted By: Dave Hardy
  • Departure Airport: Southampton (EGHI)
  • Arrival Airport: Leeds Bradford (EGNM)
  • Aircraft: JS41 (G-MAJA)
  • Flight Time: 00.54
  • Date Submitted: 02/15/2009
  • Status: Accepted
Flight Details
Gross Revenue:
(15 load / £ 0.00 per unit
£ 0.00
Fuel Cost:
(1388 fuel used @ 0 / unit)
£ 0.00

Flight Details

  • VATAWARE Link: -

Additional Log Information:

View Log

[2009/02/15 11:46:00]
Flight IATA:EZE
Pilot Number:EZE0001
Company ICAO:EZE
Aircraft Type:JS41
PAX:15
Aircraft Registration:JS41
Departing Airport: EGHI
Destination Airport: EGNM
Online: VATSIM
Route:NORRY R41 WCO DTY SAPCO N57 DENBY
Flight Level:180
11:46 Zero fuel Weight: 17980 Lbs, Fuel Weight: 5798 Lbs
11:46 VATSIM:EGHI 152020Z VRB02KT CAVOK 06/02 Q1028
11:46 VATSIM:EGNM 152020Z 29011KT 9999 SCT009 06/05 Q1024
11:57 Parking Brakes off
11:57 Com1 Freq=118.20
12:03 VR= 126 Knots
12:03 V2= 133 Knots
12:03 Take-off
12:03 Take off Weight: 23726 Lbs
12:03 Wind: 000 @ 000 Knots Heading: 199
12:03 POS N50 56 39 W001 21 36
12:03 N11 36 N12 36
12:03 Gear Up: 135 Knots
12:03 TOC
12:03 Fuel Weight: 5745 Lb
12:03 Flaps: at 136 Knots
12:04 Com1 Freq=121.20
12:04 Com1 Freq=119.20
12:04 Com1 Freq=120.20
12:04 Com1 Freq=120.22
12:08 Com1 Freq=124.22
12:08 Com1 Freq=125.22
12:08 Com1 Freq=126.22
12:08 Com1 Freq=127.22
12:08 Com1 Freq=127.02
12:08 Com1 Freq=127.92
12:08 Com1 Freq=127.95
12:09 Flaps: at 218 Knots
12:18 Wind:000@000 Knots Heading: 011 Ground Speed: 309 Knots Altitude 17998 ft
12:33 Wind:341@036 Knots Heading: 340 Ground Speed: 275 Knots Altitude 18353 ft
12:35 Com1 Freq=123.95
12:35 Com1 Freq=122.95
12:35 Com1 Freq=122.87
12:35 Com1 Freq=122.85
12:35 Com1 Freq=122.82
12:35 Com1 Freq=122.80
12:42 Flaps: at 224 Knots
12:46 Flaps: at 172 Knots
12:46 Gear Down: 172 Knots
12:47 Flaps: at 168 Knots
12:48 Wind:295@010 Knots Heading: 330 Ground Speed: 149 Knots Altitude 1975 ft
12:49 TouchDown:Rate -128 ft/min Speed: 120 Knots
12:49 VATSIM:EGNM 152120Z 28009KT 9999 SCT010 06/04 Q1024
12:49 Land
12:49 Wind:296@010 Knots
12:49 Heading: 316
12:49 Flight Duration: 00:46
12:49 Landing Weight: 22399 Lbs
12:49 POS N53 52 06 W001 39 49
12:51 Parking brakes on
12:51 Block to Block Duration: 00:54
12:51 Final Fuel: 4409 Lbls
12:51 Spent Fuel: 1388 Lbls
12:51 Flight Length: 119 NM
12:51 TOD Land Length: 119 NM

Route Map